createdAt,value
2023-05-14T00:00:49.643Z,14.46
2023-05-14T00:03:35.680Z,13.94
2023-05-14T00:06:23.697Z,14.21
2023-05-14T00:09:09.504Z,13.93
2023-05-14T00:11:55.543Z,14.61
2023-05-14T00:14:41.584Z,14.24
2023-05-14T00:17:27.615Z,14.46
2023-05-14T00:20:13.673Z,14.32
2023-05-14T00:22:59.561Z,14.08
2023-05-14T00:25:45.482Z,14.85
2023-05-14T00:28:31.367Z,14.72
2023-05-14T00:31:17.208Z,14.71
2023-05-14T00:34:03.125Z,13.25
2023-05-14T00:36:48.908Z,12.76
2023-05-14T00:39:35.111Z,13.59
2023-05-14T00:42:21.136Z,12.89
2023-05-14T00:45:07.065Z,13.70
2023-05-14T00:47:53.085Z,14.26
2023-05-14T00:50:38.991Z,13.58
2023-05-14T00:53:25.350Z,13.57
2023-05-14T00:56:11.417Z,13.40
2023-05-14T00:58:57.217Z,13.54
2023-05-14T01:01:43.179Z,12.84
2023-05-14T01:04:29.020Z,13.36
2023-05-14T01:07:14.862Z,13.43
2023-05-14T01:10:00.844Z,13.47
2023-05-14T01:12:46.834Z,13.70
2023-05-14T01:15:32.701Z,13.91
2023-05-14T01:18:18.637Z,13.66
2023-05-14T01:21:04.477Z,13.44
2023-05-14T01:23:50.319Z,13.28
2023-05-14T01:26:36.276Z,13.55
2023-05-14T01:29:22.187Z,13.62
2023-05-14T01:32:08.095Z,13.32
2023-05-14T01:34:54.151Z,13.55
2023-05-14T01:37:40.065Z,14.55
2023-05-14T01:40:26.161Z,15.89
2023-05-14T01:43:12.388Z,15.22
2023-05-14T01:45:58.429Z,16.28
2023-05-14T01:48:44.491Z,15.70
2023-05-14T01:51:30.362Z,16.40
2023-05-14T01:54:16.178Z,16.24
2023-05-14T01:57:02.216Z,16.59
2023-05-14T01:59:49.524Z,16.94
2023-05-14T02:02:35.471Z,17.09
2023-05-14T02:05:21.296Z,17.68
2023-05-14T02:08:09.054Z,17.89
2023-05-14T02:10:54.923Z,18.38
2023-05-14T02:13:40.919Z,18.68
2023-05-14T02:16:26.942Z,18.56
2023-05-14T02:19:12.887Z,18.85
2023-05-14T02:21:58.878Z,19.02
2023-05-14T02:24:44.810Z,18.69
2023-05-14T02:27:30.746Z,18.10
2023-05-14T02:30:16.449Z,17.86
2023-05-14T02:33:02.387Z,18.58
2023-05-14T02:35:48.287Z,18.77
2023-05-14T02:38:34.336Z,18.80
2023-05-14T02:41:20.374Z,17.44
2023-05-14T02:44:06.178Z,18.31
2023-05-14T02:46:52.091Z,17.98
2023-05-14T02:49:38.047Z,17.49
2023-05-14T02:52:23.897Z,18.40
2023-05-14T02:55:09.645Z,18.56
2023-05-14T02:57:55.464Z,18.56
2023-05-14T03:00:41.468Z,18.96
2023-05-14T03:03:27.890Z,19.91
2023-05-14T03:06:14.184Z,20.21
2023-05-14T03:09:00.038Z,19.21
2023-05-14T03:11:45.907Z,19.80
2023-05-14T03:14:31.759Z,20.71
2023-05-14T03:17:17.685Z,20.64
2023-05-14T03:20:03.468Z,20.57
2023-05-14T03:22:49.286Z,21.93
2023-05-14T03:25:35.157Z,23.59
2023-05-14T03:28:20.961Z,27.65
2023-05-14T03:31:06.900Z,27.57
2023-05-14T03:33:52.828Z,27.05
2023-05-14T03:36:38.686Z,23.63
2023-05-14T03:39:24.637Z,26.56
2023-05-14T03:42:10.420Z,29.73
2023-05-14T03:44:56.386Z,31.70
2023-05-14T03:47:42.315Z,30.46
2023-05-14T03:50:28.143Z,26.41
2023-05-14T03:53:14.128Z,26.30
2023-05-14T03:55:59.928Z,27.02
2023-05-14T03:58:45.767Z,25.90
2023-05-14T04:01:31.640Z,24.43
2023-05-14T04:04:17.517Z,25.12
2023-05-14T04:07:03.435Z,24.27
2023-05-14T04:09:49.382Z,24.07
2023-05-14T04:12:35.256Z,24.16
2023-05-14T04:15:21.295Z,23.83
2023-05-14T04:18:09.283Z,25.72
2023-05-14T04:20:55.394Z,23.59
2023-05-14T04:23:41.337Z,24.74
2023-05-14T04:26:27.145Z,23.78
2023-05-14T04:29:13.154Z,24.03
2023-05-14T04:31:59.035Z,24.10
2023-05-14T04:34:45.078Z,24.64
2023-05-14T04:37:30.920Z,24.70
2023-05-14T04:40:16.844Z,25.62
2023-05-14T04:43:02.837Z,25.99
2023-05-14T04:45:48.854Z,26.15
2023-05-14T04:48:34.774Z,25.42
2023-05-14T04:51:20.648Z,25.88
2023-05-14T04:54:06.652Z,26.13
2023-05-14T04:56:52.533Z,26.57
2023-05-14T04:59:38.335Z,25.07
2023-05-14T05:02:24.189Z,26.02
2023-05-14T05:05:10.252Z,26.14
2023-05-14T05:07:56.345Z,25.93
2023-05-14T05:10:42.197Z,26.48
2023-05-14T05:13:28.174Z,27.30
2023-05-14T05:16:14.248Z,26.79
2023-05-14T05:19:00.186Z,26.44
2023-05-14T05:21:45.998Z,27.52
2023-05-14T05:24:31.885Z,26.69
2023-05-14T05:27:17.761Z,26.81
2023-05-14T05:30:03.703Z,25.68
2023-05-14T05:32:49.775Z,25.75
2023-05-14T05:35:35.813Z,26.03
2023-05-14T05:38:21.702Z,26.02
2023-05-14T05:41:07.661Z,26.51
2023-05-14T05:43:53.695Z,25.82
2023-05-14T05:46:39.571Z,25.90
2023-05-14T05:49:25.690Z,26.55
2023-05-14T05:52:11.568Z,26.99
2023-05-14T05:54:57.477Z,26.52
2023-05-14T05:57:43.475Z,26.94
2023-05-14T06:00:29.441Z,25.57
2023-05-14T06:03:15.269Z,25.62
2023-05-14T06:06:01.293Z,24.52
2023-05-14T06:08:47.129Z,23.85
2023-05-14T06:11:33.017Z,22.95
2023-05-14T06:14:18.972Z,23.42
2023-05-14T06:17:05.026Z,21.80
2023-05-14T06:19:50.858Z,22.71
2023-05-14T06:22:36.697Z,21.82
2023-05-14T06:25:22.615Z,22.38
2023-05-14T06:28:08.516Z,21.70
2023-05-14T06:30:54.341Z,22.74
2023-05-14T06:33:40.281Z,22.01
2023-05-14T06:36:26.177Z,21.60
2023-05-14T06:39:12.118Z,21.93
2023-05-14T06:41:58.035Z,21.98
2023-05-14T06:44:43.871Z,22.16
2023-05-14T06:47:29.849Z,21.95
2023-05-14T06:50:15.857Z,21.58
2023-05-14T06:53:01.703Z,21.81
2023-05-14T06:55:47.797Z,21.70
2023-05-14T06:58:33.758Z,20.89
2023-05-14T07:01:19.783Z,20.45
2023-05-14T07:04:05.705Z,20.45
2023-05-14T07:06:51.549Z,20.54
2023-05-14T07:09:37.468Z,19.76
2023-05-14T07:12:23.285Z,20.26
2023-05-14T07:15:09.180Z,19.77
2023-05-14T07:17:55.041Z,19.49
2023-05-14T07:20:41.026Z,20.11
2023-05-14T07:23:26.988Z,19.46
2023-05-14T07:26:12.893Z,20.27
2023-05-14T07:28:58.825Z,20.53
2023-05-14T07:31:44.992Z,19.88
2023-05-14T07:34:31.466Z,20.13
2023-05-14T07:37:17.357Z,20.34
2023-05-14T07:40:03.181Z,20.55
2023-05-14T07:42:49.090Z,19.69
2023-05-14T07:45:34.920Z,18.89
2023-05-14T07:48:20.985Z,18.59
2023-05-14T07:51:06.939Z,17.94
2023-05-14T07:53:52.907Z,17.95
2023-05-14T07:56:38.859Z,18.11
2023-05-14T07:59:24.750Z,16.99
2023-05-14T08:02:10.677Z,15.60
2023-05-14T08:04:56.592Z,16.04
2023-05-14T08:07:42.540Z,14.92
2023-05-14T08:10:28.975Z,14.67
2023-05-14T08:13:15.129Z,14.01
2023-05-14T08:16:00.922Z,15.24
2023-05-14T08:18:46.931Z,15.48
2023-05-14T08:21:32.852Z,11.22
2023-05-14T08:24:18.824Z,11.98
2023-05-14T08:27:04.694Z,12.75
2023-05-14T08:29:52.653Z,13.13
2023-05-14T08:32:38.865Z,13.14
2023-05-14T08:35:25.225Z,11.88
2023-05-14T08:38:11.227Z,11.69
2023-05-14T08:40:57.257Z,10.90
2023-05-14T08:43:43.113Z,11.64
2023-05-14T08:46:29.155Z,10.19
2023-05-14T08:49:15.272Z,9.15
2023-05-14T08:52:01.034Z,8.87
2023-05-14T08:54:46.925Z,9.21
2023-05-14T08:57:32.813Z,8.31
2023-05-14T09:00:18.793Z,7.86
2023-05-14T09:03:04.746Z,7.79
2023-05-14T09:05:50.591Z,7.82
2023-05-14T09:08:36.599Z,7.35
2023-05-14T09:11:22.548Z,7.32
2023-05-14T09:14:08.356Z,8.67
2023-05-14T09:16:54.337Z,9.83
2023-05-14T09:19:40.074Z,9.29
2023-05-14T09:22:25.953Z,9.85
2023-05-14T09:25:11.865Z,9.49
2023-05-14T09:27:58.766Z,8.69
2023-05-14T09:30:45.131Z,9.23
2023-05-14T09:33:31.166Z,8.93
2023-05-14T09:36:17.030Z,8.92
2023-05-14T09:39:02.946Z,9.19
2023-05-14T09:41:48.842Z,7.52
2023-05-14T09:44:34.674Z,8.60
2023-05-14T09:47:20.789Z,8.82
2023-05-14T09:50:07.003Z,9.12
2023-05-14T09:52:52.936Z,9.01
2023-05-14T09:55:38.698Z,9.33
2023-05-14T09:58:24.537Z,8.94
2023-05-14T10:01:10.368Z,8.98
2023-05-14T10:03:56.327Z,8.17
2023-05-14T10:06:42.265Z,8.79
2023-05-14T10:09:28.569Z,8.01
2023-05-14T10:12:14.567Z,8.09
2023-05-14T10:15:00.490Z,7.54
2023-05-14T10:17:46.475Z,7.55
2023-05-14T10:20:32.336Z,7.06
2023-05-14T10:23:18.259Z,6.32
2023-05-14T10:26:04.060Z,6.96
2023-05-14T10:28:50.043Z,7.32
2023-05-14T10:31:36.011Z,6.77
2023-05-14T10:34:22.034Z,6.78
2023-05-14T10:37:07.989Z,7.13
2023-05-14T10:39:53.966Z,8.09
2023-05-14T10:42:40.396Z,7.12
2023-05-14T10:45:26.254Z,6.33
2023-05-14T10:48:12.219Z,6.43
2023-05-14T10:50:58.421Z,6.32
2023-05-14T10:53:44.391Z,6.07
2023-05-14T10:56:30.213Z,5.74
2023-05-14T10:59:16.047Z,6.09
2023-05-14T11:02:01.958Z,4.90
2023-05-14T11:04:47.858Z,4.75
2023-05-14T11:07:33.756Z,5.03
2023-05-14T11:10:19.700Z,5.95
2023-05-14T11:13:05.821Z,4.92
2023-05-14T11:15:51.585Z,5.21
2023-05-14T11:18:37.670Z,5.92
2023-05-14T11:21:23.644Z,5.72
2023-05-14T11:24:09.498Z,6.04
2023-05-14T11:26:55.455Z,6.09
2023-05-14T11:29:41.299Z,5.81
2023-05-14T11:32:27.214Z,5.50
2023-05-14T11:35:13.216Z,4.54
2023-05-14T11:37:59.341Z,4.70
2023-05-14T11:40:45.141Z,4.63
2023-05-14T11:43:31.103Z,4.86
2023-05-14T11:46:17.004Z,5.25
2023-05-14T11:49:02.973Z,5.04
2023-05-14T11:51:48.870Z,4.97
2023-05-14T11:54:34.745Z,5.22
2023-05-14T11:57:20.640Z,5.13
2023-05-14T12:00:06.588Z,4.86
2023-05-14T12:02:52.861Z,5.17
2023-05-14T12:05:39.126Z,5.77
2023-05-14T12:08:24.894Z,5.54
2023-05-14T12:11:10.787Z,5.86
2023-05-14T12:13:56.889Z,6.19
2023-05-14T12:16:42.854Z,5.43
2023-05-14T12:19:29.219Z,4.87
2023-05-14T12:22:15.106Z,5.17
2023-05-14T12:25:00.984Z,4.34
2023-05-14T12:27:46.886Z,4.29
2023-05-14T12:30:32.793Z,3.95
2023-05-14T12:33:18.839Z,4.01
2023-05-14T12:36:20.273Z,3.76
2023-05-14T12:39:07.083Z,2.89
2023-05-14T12:41:53.086Z,2.87
2023-05-14T12:44:39.170Z,3.36
2023-05-14T12:47:24.963Z,3.20
2023-05-14T12:50:10.890Z,2.79
2023-05-14T12:52:56.789Z,2.68
2023-05-14T12:55:42.610Z,2.57
2023-05-14T12:58:28.506Z,2.55
2023-05-14T13:01:14.419Z,2.36
2023-05-14T13:04:00.655Z,2.41
2023-05-14T13:06:47.009Z,2.43
2023-05-14T13:09:32.793Z,2.38
2023-05-14T13:12:18.587Z,2.33
2023-05-14T13:15:04.445Z,2.51
2023-05-14T13:17:50.486Z,2.60
2023-05-14T13:20:36.300Z,2.67
2023-05-14T13:23:22.230Z,2.58
2023-05-14T13:26:08.760Z,2.36
2023-05-14T13:28:54.711Z,2.12
2023-05-14T13:31:40.545Z,2.52
2023-05-14T13:34:26.457Z,2.49
2023-05-14T13:37:12.385Z,2.94
2023-05-14T13:39:58.331Z,4.60
2023-05-14T13:42:44.366Z,4.79
2023-05-14T13:45:30.271Z,4.32
2023-05-14T13:48:16.425Z,3.97
2023-05-14T13:51:02.586Z,4.66
2023-05-14T13:53:48.651Z,3.88
2023-05-14T13:56:34.493Z,3.65
2023-05-14T13:59:20.337Z,3.74
2023-05-14T14:02:06.551Z,4.29
2023-05-14T14:04:52.852Z,4.26
2023-05-14T14:07:38.705Z,4.00
2023-05-14T14:10:24.641Z,4.04
2023-05-14T14:13:10.523Z,3.65
2023-05-14T14:15:56.310Z,3.92
2023-05-14T14:18:42.159Z,3.71
2023-05-14T14:21:27.952Z,3.28
2023-05-14T14:24:13.954Z,2.56
2023-05-14T14:26:59.796Z,3.38
2023-05-14T14:29:46.228Z,3.15
2023-05-14T14:32:34.124Z,2.77
2023-05-14T14:35:21.106Z,3.33
2023-05-14T14:38:07.084Z,67.72
2023-05-14T14:40:53.021Z,11.71
2023-05-14T14:43:38.884Z,5.94
2023-05-14T14:46:24.836Z,6.96
2023-05-14T14:49:10.772Z,5.76
2023-05-14T14:51:56.607Z,8.66
2023-05-14T14:54:42.573Z,11.18
2023-05-14T14:57:28.845Z,6.73
2023-05-14T15:00:14.657Z,10.09
2023-05-14T15:03:00.770Z,6.03
2023-05-14T15:05:46.952Z,3.96
2023-05-14T15:08:33.088Z,79.12
2023-05-14T15:11:19.097Z,5.51
2023-05-14T15:14:04.923Z,4.56
2023-05-14T15:16:51.200Z,2.55
2023-05-14T15:19:37.120Z,1.88
2023-05-14T15:22:22.889Z,2.49
2023-05-14T15:25:08.835Z,2.66
2023-05-14T15:27:54.673Z,2.73
2023-05-14T15:30:40.568Z,2.70
2023-05-14T15:33:26.440Z,2.87
2023-05-14T15:36:12.807Z,2.95
2023-05-14T15:38:58.669Z,2.93
2023-05-14T15:41:44.669Z,2.85
2023-05-14T15:44:30.540Z,2.91
2023-05-14T15:47:16.321Z,2.77
2023-05-14T15:50:02.211Z,3.83
2023-05-14T15:52:48.047Z,3.80
2023-05-14T15:55:34.100Z,3.67
2023-05-14T15:58:19.918Z,3.67
2023-05-14T16:01:05.824Z,3.58
2023-05-14T16:03:51.908Z,3.16
2023-05-14T16:06:38.161Z,3.39
2023-05-14T16:09:23.974Z,3.81
2023-05-14T16:12:09.842Z,3.99
2023-05-14T16:14:55.833Z,4.01
2023-05-14T16:17:41.769Z,2.56
2023-05-14T16:20:27.675Z,2.61
2023-05-14T16:23:13.497Z,2.84
2023-05-14T16:25:59.514Z,3.05
2023-05-14T16:28:45.572Z,2.63
2023-05-14T16:31:31.559Z,2.26
2023-05-14T16:34:17.374Z,2.12
2023-05-14T16:37:03.373Z,2.09
2023-05-14T16:39:49.868Z,1.92
2023-05-14T16:42:35.875Z,1.88
2023-05-14T16:45:21.915Z,2.30
2023-05-14T16:48:08.219Z,2.30
2023-05-14T16:50:54.001Z,2.52
2023-05-14T16:53:39.922Z,2.22
2023-05-14T16:56:25.753Z,2.20
2023-05-14T16:59:11.674Z,2.03
2023-05-14T17:01:58.139Z,2.56
2023-05-14T17:04:44.157Z,3.08
2023-05-14T17:07:29.956Z,3.21
2023-05-14T17:10:15.951Z,3.26
2023-05-14T17:13:01.861Z,3.21
2023-05-14T17:15:47.832Z,3.00
2023-05-14T17:18:33.734Z,3.13
2023-05-14T17:21:19.565Z,3.12
2023-05-14T17:24:05.413Z,3.47
2023-05-14T17:26:51.252Z,3.80
2023-05-14T17:29:37.139Z,3.82
2023-05-14T17:32:23.587Z,4.02
2023-05-14T17:35:09.523Z,3.78
2023-05-14T17:37:55.493Z,4.13
2023-05-14T17:40:43.428Z,4.11
2023-05-14T17:43:29.370Z,3.89
2023-05-14T17:46:15.326Z,3.75
2023-05-14T17:49:01.327Z,4.10
2023-05-14T17:51:47.237Z,3.78
2023-05-14T17:54:33.173Z,3.55
2023-05-14T17:57:19.114Z,3.64
2023-05-14T18:00:04.982Z,3.84
2023-05-14T18:02:50.906Z,3.71
2023-05-14T18:05:36.726Z,3.18
2023-05-14T18:08:22.707Z,2.80
2023-05-14T18:11:08.658Z,2.52
2023-05-14T18:13:54.565Z,3.09
2023-05-14T18:16:40.594Z,3.34
2023-05-14T18:19:26.507Z,3.24
2023-05-14T18:22:12.533Z,3.06
2023-05-14T18:24:58.412Z,2.65
2023-05-14T18:27:44.527Z,2.85
2023-05-14T18:30:30.897Z,2.80
2023-05-14T18:33:16.822Z,2.94
2023-05-14T18:36:02.756Z,3.02
2023-05-14T18:38:48.766Z,2.98
2023-05-14T18:41:34.617Z,3.32
2023-05-14T18:44:20.602Z,3.27
2023-05-14T18:47:06.598Z,3.20
2023-05-14T18:49:52.472Z,3.17
2023-05-14T18:52:38.536Z,3.25
2023-05-14T18:55:24.617Z,3.09
2023-05-14T18:58:10.814Z,3.22
2023-05-14T19:00:56.735Z,3.56
2023-05-14T19:03:42.765Z,3.49
2023-05-14T19:06:31.074Z,3.63
2023-05-14T19:09:17.053Z,3.68
2023-05-14T19:12:02.930Z,3.24
2023-05-14T19:14:48.794Z,3.14
2023-05-14T19:17:34.695Z,3.03
2023-05-14T19:20:20.508Z,2.61
2023-05-14T19:23:06.380Z,2.40
2023-05-14T19:25:52.288Z,2.19
2023-05-14T19:28:38.305Z,2.02
2023-05-14T19:31:24.261Z,1.71
2023-05-14T19:34:10.105Z,1.79
2023-05-14T19:36:56.140Z,2.01
2023-05-14T19:39:42.094Z,2.17
2023-05-14T19:42:27.982Z,2.33
2023-05-14T19:45:13.926Z,2.90
2023-05-14T19:47:59.794Z,3.24
2023-05-14T19:50:45.856Z,3.23
2023-05-14T19:53:31.744Z,3.57
2023-05-14T19:56:17.567Z,3.63
2023-05-14T19:59:03.431Z,4.00
2023-05-14T20:01:49.266Z,4.19
2023-05-14T20:04:35.121Z,3.98
2023-05-14T20:07:20.952Z,3.74
2023-05-14T20:10:06.708Z,4.08
2023-05-14T20:12:52.639Z,3.84
2023-05-14T20:15:38.538Z,3.97
2023-05-14T20:18:24.356Z,3.44
2023-05-14T20:21:10.226Z,3.44
2023-05-14T20:23:56.124Z,3.16
2023-05-14T20:26:42.008Z,2.68
2023-05-14T20:29:28.038Z,2.69
2023-05-14T20:32:13.858Z,2.45
2023-05-14T20:34:59.677Z,2.49
2023-05-14T20:37:45.470Z,2.45
2023-05-14T20:40:31.377Z,2.29
2023-05-14T20:43:17.623Z,2.43
2023-05-14T20:46:03.509Z,2.33
2023-05-14T20:48:49.377Z,6.16
2023-05-14T20:51:35.462Z,7.39
2023-05-14T20:54:21.380Z,5.71
2023-05-14T20:57:07.357Z,5.05
2023-05-14T20:59:53.201Z,4.09
2023-05-14T21:02:39.173Z,2.87
2023-05-14T21:05:25.669Z,2.52
2023-05-14T21:08:11.800Z,2.37
2023-05-14T21:10:57.821Z,2.33
2023-05-14T21:13:43.677Z,2.34
2023-05-14T21:16:29.397Z,2.47
2023-05-14T21:19:15.579Z,2.22
2023-05-14T21:22:01.846Z,2.66
2023-05-14T21:24:47.660Z,2.84
2023-05-14T21:27:33.607Z,3.77
2023-05-14T21:30:19.439Z,5.02
2023-05-14T21:33:05.365Z,4.44
2023-05-14T21:35:51.244Z,4.06
2023-05-14T21:38:37.103Z,5.09
2023-05-14T21:41:23.001Z,4.92
2023-05-14T21:44:08.812Z,4.46
2023-05-14T21:46:54.694Z,4.54
2023-05-14T21:49:40.613Z,4.52
2023-05-14T21:52:26.462Z,3.85
2023-05-14T21:55:12.288Z,3.67
2023-05-14T21:57:58.196Z,3.53
2023-05-14T22:00:44.121Z,3.54
2023-05-14T22:03:30.072Z,2.91
2023-05-14T22:06:16.226Z,2.72
2023-05-14T22:09:02.057Z,2.69
2023-05-14T22:12:01.017Z,2.58
2023-05-14T22:15:06.918Z,2.64
2023-05-14T22:17:52.790Z,2.96
2023-05-14T22:20:38.761Z,3.07
2023-05-14T22:23:24.525Z,3.13
2023-05-14T22:26:10.259Z,3.33
2023-05-14T22:28:56.117Z,3.33
2023-05-14T22:31:42.084Z,3.06
2023-05-14T22:34:28.052Z,3.22
2023-05-14T22:37:13.796Z,3.46
2023-05-14T22:39:59.668Z,3.12
2023-05-14T22:42:45.521Z,3.35
2023-05-14T22:45:31.364Z,3.01
2023-05-14T22:48:17.113Z,3.14
2023-05-14T22:51:03.038Z,3.04
2023-05-14T22:53:49.010Z,3.12
2023-05-14T22:56:34.861Z,3.05
2023-05-14T22:59:22.729Z,2.75
2023-05-14T23:02:09.760Z,3.35
2023-05-14T23:04:56.047Z,3.06
2023-05-14T23:07:42.108Z,3.11
2023-05-14T23:10:27.886Z,2.83
2023-05-14T23:13:13.742Z,3.01
2023-05-14T23:15:59.604Z,2.72
2023-05-14T23:18:45.797Z,2.94
2023-05-14T23:21:32.025Z,3.26
2023-05-14T23:24:17.856Z,3.26
2023-05-14T23:27:03.771Z,3.47
2023-05-14T23:29:49.624Z,3.40
2023-05-14T23:32:35.594Z,3.71
2023-05-14T23:35:21.444Z,3.54
2023-05-14T23:38:07.212Z,3.27
2023-05-14T23:40:53.125Z,3.44
2023-05-14T23:43:39.009Z,3.51
2023-05-14T23:46:24.991Z,3.49
2023-05-14T23:49:10.806Z,3.88
2023-05-14T23:51:56.599Z,3.72
2023-05-14T23:54:42.535Z,4.00
2023-05-14T23:57:28.255Z,4.33
